Time;durP1;ratioP1;P1;durP2;ratioP2;P2;SDS_P1;SDS_P2;PMS_P1;PMS_P2;Temp;Humidity;BMP_temperature;BMP_pressure;BME280_temperature;BME280_humidity;BME280_pressure;Samples;Min_cycle;Max_cycle;Signal;HPM_P1;HPM_P2
2022/03/12 00:00:38;;;;;;;12.30;5.90;;;;;;;-4.01;53.08;101769.52;116953;1188;23475;-49
2022/03/12 00:03:08;;;;;;;10.40;6.30;;;;;;;-4.02;53.08;101770.54;116962;1188;23637;-61
2022/03/12 00:05:47;;;;;;;11.40;5.70;;;;;;;-4.02;53.15;101773.95;116958;1188;21859;-49
2022/03/12 00:08:16;;;;;;;14.30;6.70;;;;;;;-4.01;53.27;101774.49;117078;1188;23461;-62
2022/03/12 00:10:51;;;;;;;9.70;5.70;;;;;;;-4.04;53.27;101775.21;116951;1188;24194;-50
2022/03/12 00:13:21;;;;;;;11.00;6.70;;;;;;;-4.06;53.04;101767.98;116958;1188;23450;-49
2022/03/12 00:15:55;;;;;;;15.10;6.80;;;;;;;-4.12;53.08;101766.23;116882;1189;23086;-49
2022/03/12 00:18:34;;;;;;;10.20;5.50;;;;;;;-4.18;53.09;101765.32;116956;1188;23464;-49
2022/03/12 00:21:08;;;;;;;11.10;5.50;;;;;;;-4.21;52.97;101764.09;116994;1188;21866;-63
2022/03/12 00:23:36;;;;;;;9.10;5.40;;;;;;;-4.23;53.11;101767.34;116906;1188;21921;-62
2022/03/12 00:26:06;;;;;;;10.80;5.60;;;;;;;-4.26;53.09;101766.62;116977;1188;21941;-51
2022/03/12 00:28:34;;;;;;;8.60;4.50;;;;;;;-4.27;53.24;101769.81;116960;1188;21855;-49
2022/03/12 00:31:03;;;;;;;11.40;5.80;;;;;;;-4.28;53.08;101769.72;116981;1188;23773;-49
2022/03/12 00:33:32;;;;;;;11.30;6.00;;;;;;;-4.29;53.19;101769.16;117035;1188;23470;-63
2022/03/12 00:36:02;;;;;;;10.60;5.70;;;;;;;-4.30;52.99;101761.91;117016;1188;22623;-62
2022/03/12 00:38:31;;;;;;;11.50;5.50;;;;;;;-4.33;53.15;101763.94;116932;1187;21863;-63
2022/03/12 00:41:02;;;;;;;11.10;6.20;;;;;;;-4.38;53.11;101763.58;116960;1188;23454;-50
2022/03/12 00:43:32;;;;;;;13.70;6.50;;;;;;;-4.44;52.97;101765.23;116923;1189;23583;-49
2022/03/12 00:46:00;;;;;;;10.10;5.80;;;;;;;-4.49;53.05;101764.56;116966;1189;24176;-62
2022/03/12 00:48:31;;;;;;;12.90;6.20;;;;;;;-4.52;53.17;101764.48;116993;1189;21898;-62
2022/03/12 00:51:07;;;;;;;12.20;6.90;;;;;;;-4.56;52.97;101760.43;116933;1188;23598;-49
2022/03/12 00:53:37;;;;;;;11.20;6.10;;;;;;;-4.58;53.16;101758.23;117019;1188;21901;-49
2022/03/12 00:56:06;;;;;;;11.70;5.50;;;;;;;-4.59;53.06;101759.02;116949;1188;23774;-49
2022/03/12 00:58:37;;;;;;;13.60;6.20;;;;;;;-4.62;53.09;101757.93;116965;1188;24169;-49
2022/03/12 01:01:06;;;;;;;12.30;6.50;;;;;;;-4.63;52.97;101754.14;116938;1189;23572;-48
2022/03/12 01:03:35;;;;;;;10.70;5.60;;;;;;;-4.64;53.06;101748.92;117039;1188;24752;-48
2022/03/12 01:06:04;;;;;;;9.60;6.00;;;;;;;-4.62;53.23;101750.73;116918;1188;21856;-49
2022/03/12 01:08:34;;;;;;;11.50;6.30;;;;;;;-4.60;53.18;101750.22;117028;1188;21854;-49
2022/03/12 01:11:12;;;;;;;11.10;5.40;;;;;;;-4.59;53.22;101751.65;117001;1188;24166;-48
2022/03/12 01:13:43;;;;;;;9.60;5.40;;;;;;;-4.58;53.12;101746.22;116965;1188;24154;-62
2022/03/12 01:16:11;;;;;;;9.50;5.40;;;;;;;-4.57;53.09;101747.49;117016;1188;23474;-62
2022/03/12 01:18:42;;;;;;;10.10;6.10;;;;;;;-4.56;53.14;101748.95;116921;1188;21885;-60
2022/03/12 01:21:17;;;;;;;10.90;6.30;;;;;;;-4.53;53.19;101752.96;116999;1188;23465;-49
2022/03/12 01:23:47;;;;;;;13.20;6.40;;;;;;;-4.52;53.17;101755.76;116985;1187;21860;-49
2022/03/12 01:26:16;;;;;;;13.40;6.40;;;;;;;-4.49;53.18;101755.06;117026;1189;21857;-48
2022/03/12 01:28:45;;;;;;;10.40;5.40;;;;;;;-4.46;53.24;101758.73;116905;1189;22064;-62
2022/03/12 01:31:15;;;;;;;9.30;5.40;;;;;;;-4.40;53.34;101757.58;116963;1189;21856;-62
2022/03/12 01:33:45;;;;;;;10.90;6.00;;;;;;;-4.35;53.33;101756.44;116938;1189;24194;-48
2022/03/12 01:36:13;;;;;;;13.60;6.00;;;;;;;-4.31;53.40;101757.18;116998;1189;22970;-62
2022/03/12 01:38:47;;;;;;;12.10;6.40;;;;;;;-4.25;53.44;101757.14;116801;1189;23541;-62
2022/03/12 01:41:22;;;;;;;10.70;6.20;;;;;;;-4.19;53.55;101757.19;117063;1188;22923;-49
2022/03/12 01:43:53;;;;;;;10.70;5.80;;;;;;;-4.12;53.41;101763.65;117002;1191;21857;-62
2022/03/12 01:46:32;;;;;;;11.30;6.70;;;;;;;-4.08;53.40;101767.23;116935;1189;21846;-48
2022/03/12 01:49:14;;;;;;;13.70;6.90;;;;;;;-4.03;53.46;101765.84;116967;1189;23472;-62
2022/03/12 01:51:44;;;;;;;13.10;6.90;;;;;;;-3.96;53.47;101769.91;117001;1187;21857;-57
2022/03/12 01:54:16;;;;;;;8.50;4.60;;;;;;;-3.91;53.56;101770.44;117000;1188;21878;-49
2022/03/12 01:56:45;;;;;;;13.70;7.10;;;;;;;-3.86;53.56;101773.52;117053;1188;21856;-49
2022/03/12 01:59:13;;;;;;;11.70;6.50;;;;;;;-3.81;53.59;101773.45;117009;1184;23653;-62
2022/03/12 02:01:43;;;;;;;13.40;7.10;;;;;;;-3.77;53.46;101771.53;117031;1188;21854;-49
2022/03/12 02:04:12;;;;;;;11.90;6.50;;;;;;;-3.74;53.50;101767.41;116960;1189;21853;-48
2022/03/12 02:06:42;;;;;;;10.20;5.60;;;;;;;-3.68;53.51;101770.57;116999;1188;23494;-49
2022/03/12 02:09:22;;;;;;;13.80;6.70;;;;;;;-3.63;53.60;101774.03;116978;1188;23544;-49
2022/03/12 02:11:51;;;;;;;10.90;5.30;;;;;;;-3.57;53.55;101772.56;117072;1188;21874;-50
2022/03/12 02:14:27;;;;;;;12.40;6.00;;;;;;;-3.53;53.58;101777.09;116937;1187;21893;-62
2022/03/12 02:17:00;;;;;;;10.50;6.30;;;;;;;-3.48;53.68;101776.02;117000;1186;21864;-62
2022/03/12 02:19:30;;;;;;;11.40;6.50;;;;;;;-3.47;53.49;101778.17;117007;1188;21854;-61
2022/03/12 02:22:01;;;;;;;13.70;6.60;;;;;;;-3.47;53.57;101780.41;116929;1189;24603;-62
2022/03/12 02:24:31;;;;;;;13.80;7.30;;;;;;;-3.48;53.52;101782.61;117018;1188;23381;-62
2022/03/12 02:27:00;;;;;;;11.10;6.50;;;;;;;-3.49;53.47;101784.05;116966;1189;23580;-62
2022/03/12 02:29:28;;;;;;;12.60;6.40;;;;;;;-3.49;53.45;101784.38;116998;1183;21875;-61
2022/03/12 02:32:00;;;;;;;13.00;6.50;;;;;;;-3.50;53.51;101784.85;117032;1186;24161;-49
2022/03/12 02:34:39;;;;;;;13.30;6.80;;;;;;;-3.51;53.51;101782.33;116975;1188;23050;-49
2022/03/12 02:37:08;;;;;;;12.10;6.10;;;;;;;-3.56;53.41;101784.43;117118;1186;21863;-61
2022/03/12 02:39:38;;;;;;;12.70;6.50;;;;;;;-3.60;53.53;101785.19;116980;1188;24040;-49
2022/03/12 02:42:08;;;;;;;8.20;4.80;;;;;;;-3.62;53.54;101785.58;116963;1188;22009;-61
2022/03/12 02:44:38;;;;;;;13.70;5.60;;;;;;;-3.62;53.40;101785.63;117006;1186;24246;-49
2022/03/12 02:47:17;;;;;;;10.50;6.00;;;;;;;-3.62;53.41;101786.81;116975;1184;23554;-49
2022/03/12 02:49:56;;;;;;;12.90;6.60;;;;;;;-3.61;53.55;101787.75;117258;1188;22930;-61
2022/03/12 02:52:27;;;;;;;14.10;7.10;;;;;;;-3.64;53.31;101790.92;116977;1187;24374;-62
2022/03/12 02:54:57;;;;;;;11.80;6.20;;;;;;;-3.66;53.39;101793.59;117017;1188;23797;-62
2022/03/12 02:57:27;;;;;;;11.80;6.00;;;;;;;-3.68;53.33;101793.92;117019;1188;21902;-62
2022/03/12 03:00:03;;;;;;;11.10;6.00;;;;;;;-3.70;53.38;101797.73;117026;1188;21852;-49
2022/03/12 03:02:38;;;;;;;9.40;5.80;;;;;;;-3.72;53.39;101797.44;117017;1188;21915;-62
2022/03/12 03:05:33;;;;;;;10.70;5.90;;;;;;;-3.73;53.35;101800.77;116963;1188;22975;-49
2022/03/12 03:08:04;;;;;;;14.30;6.10;;;;;;;-3.73;53.41;101801.64;116963;1188;21994;-49
2022/03/12 03:10:40;;;;;;;;;;;;;;;-3.73;53.41;101800.27;116950;1188;23018;-49
2022/03/12 03:13:18;;;;;;;10.60;5.40;;;;;;;-3.75;53.30;101800.14;116967;1188;23476;-62
2022/03/12 03:15:51;;;;;;;9.80;5.20;;;;;;;-3.78;53.48;101799.95;116968;1188;22618;-49
2022/03/12 03:18:22;;;;;;;10.40;5.40;;;;;;;-3.78;53.46;101797.23;117031;1189;23107;-49
2022/03/12 03:20:54;;;;;;;9.50;5.30;;;;;;;-3.79;53.42;101800.08;117031;1188;23476;-49
2022/03/12 03:23:25;;;;;;;10.80;6.20;;;;;;;-3.80;53.34;101803.75;116959;1188;21873;-62
2022/03/12 03:25:53;;;;;;;10.30;5.70;;;;;;;-3.82;53.25;101803.77;116766;1190;23481;-49
2022/03/12 03:28:22;;;;;;;10.00;5.70;;;;;;;-3.86;53.08;101802.62;116914;1189;21858;-61
2022/03/12 03:30:50;;;;;;;10.00;6.10;;;;;;;-3.91;53.36;101805.21;116898;1189;22958;-49
2022/03/12 03:33:20;;;;;;;10.60;5.30;;;;;;;-3.96;53.31;101805.74;116750;1189;21846;-61
2022/03/12 03:35:49;;;;;;;10.30;5.60;;;;;;;-4.00;53.16;101814.23;116799;1189;21855;-61
2022/03/12 03:38:18;;;;;;;9.60;5.70;;;;;;;-4.01;53.24;101809.30;116871;1189;22905;-50
2022/03/12 03:40:49;;;;;;;8.30;4.90;;;;;;;-4.03;53.23;101813.81;116642;1190;22871;-63
2022/03/12 03:43:19;;;;;;;10.80;5.30;;;;;;;-4.05;53.27;101811.63;116737;1190;22943;-62
2022/03/12 03:45:54;;;;;;;8.90;4.90;;;;;;;-4.01;53.21;101813.80;116719;1189;22888;-51
2022/03/12 03:48:31;;;;;;;10.10;5.60;;;;;;;-4.01;53.41;101813.79;116908;1189;21860;-63
2022/03/12 03:51:00;;;;;;;9.00;5.20;;;;;;;-4.01;53.25;101817.53;116943;1188;21855;-63
2022/03/12 03:53:28;;;;;;;7.40;4.30;;;;;;;-4.02;53.43;101817.33;116903;1189;22600;-48
2022/03/12 03:55:59;;;;;;;12.00;5.00;;;;;;;-4.03;53.32;101822.27;116992;1189;21840;-50
2022/03/12 03:58:30;;;;;;;10.50;5.40;;;;;;;-4.06;53.27;101820.34;116930;1189;21957;-49
2022/03/12 04:00:59;;;;;;;;;;;;;;;-4.08;53.17;101820.57;116739;1189;21875;-62
2022/03/12 04:03:49;;;;;;;11.20;5.10;;;;;;;-4.14;53.18;101820.60;116711;1189;21852;-49
2022/03/12 04:06:21;;;;;;;9.90;5.40;;;;;;;-4.22;53.12;101824.55;116931;1189;22305;-62
2022/03/12 04:08:59;;;;;;;12.50;6.50;;;;;;;-4.28;53.13;101827.31;116863;1189;23893;-62
2022/03/12 04:11:28;;;;;;;11.40;5.90;;;;;;;-4.34;53.15;101835.15;116926;1189;23544;-62
2022/03/12 04:13:57;;;;;;;10.10;5.90;;;;;;;-4.41;53.12;101839.08;116715;1190;24230;-62
2022/03/12 04:16:36;;;;;;;9.30;4.50;;;;;;;-4.50;53.04;101839.71;116831;1190;23554;-49
2022/03/12 04:19:05;;;;;;;9.20;5.20;;;;;;;-4.56;53.16;101845.75;116677;1189;23077;-49
2022/03/12 04:21:35;;;;;;;;;;;;;;;-4.59;53.06;101847.56;116976;1189;23450;-63
2022/03/12 04:24:25;;;;;;;8.70;4.40;;;;;;;-4.63;53.26;101851.58;117477;1188;24207;-50
2022/03/12 04:26:53;;;;;;;9.70;4.60;;;;;;;-4.65;53.20;101855.20;116935;1189;22942;-49
2022/03/12 04:29:23;;;;;;;10.20;4.60;;;;;;;-4.68;53.00;101858.55;116988;1188;21988;-49
2022/03/12 04:31:51;;;;;;;9.30;4.40;;;;;;;-4.72;52.97;101861.86;116993;1188;21907;-49
2022/03/12 04:34:21;;;;;;;12.60;5.30;;;;;;;-4.76;53.11;101861.27;116936;1188;23533;-49
2022/03/12 04:36:49;;;;;;;8.70;4.50;;;;;;;-4.78;53.19;101855.30;117012;1188;23580;-63
2022/03/12 04:39:18;;;;;;;9.40;4.50;;;;;;;-4.80;53.13;101850.19;117035;1188;21989;-63
2022/03/12 04:41:46;;;;;;;8.60;4.50;;;;;;;-4.83;53.26;101859.55;116992;1188;23556;-49
2022/03/12 04:44:15;;;;;;;7.80;4.30;;;;;;;-4.81;53.25;101860.50;116998;1188;21983;-67
2022/03/12 04:46:43;;;;;;;13.70;5.50;;;;;;;-4.70;53.25;101859.14;117019;1188;23472;-64
2022/03/12 04:49:12;;;;;;;17.80;5.00;;;;;;;-4.60;53.49;101863.77;117011;1188;23472;-65
2022/03/12 04:51:43;;;;;;;11.20;6.20;;;;;;;-4.53;53.54;101865.52;116819;1189;23458;-63
2022/03/12 04:54:11;;;;;;;12.50;4.40;;;;;;;-4.48;53.24;101869.31;116958;1188;22807;-50
2022/03/12 04:56:40;;;;;;;9.80;5.10;;;;;;;-4.42;53.42;101865.78;117027;1188;21861;-49
2022/03/12 04:59:08;;;;;;;11.50;5.30;;;;;;;-4.35;53.47;101861.45;116957;1188;22825;-50
2022/03/12 05:01:37;;;;;;;11.00;4.60;;;;;;;-4.29;53.49;101861.39;116772;1190;24169;-49
2022/03/12 05:04:06;;;;;;;10.20;5.00;;;;;;;-4.23;53.53;101856.00;116980;1188;23646;-66
2022/03/12 05:06:34;;;;;;;9.30;4.00;;;;;;;-4.15;53.44;101858.23;116976;1188;22973;-49
2022/03/12 05:09:05;;;;;;;11.50;5.70;;;;;;;-4.04;53.64;101854.95;117015;1188;23449;-50
2022/03/12 05:11:34;;;;;;;11.40;5.20;;;;;;;-3.93;53.59;101857.58;117000;1192;22930;-49
2022/03/12 05:14:04;;;;;;;12.80;4.20;;;;;;;-3.94;53.47;101856.29;116957;1189;23445;-63
2022/03/12 05:16:33;;;;;;;;;;;;;;;-3.94;53.37;101857.11;116967;1188;22930;-49
2022/03/12 05:19:06;;;;;;;6.80;3.90;;;;;;;-3.93;53.50;101860.80;117011;1188;21960;-50
2022/03/12 05:21:36;;;;;;;9.10;3.60;;;;;;;-3.93;53.47;101861.88;116997;1187;21852;-57
2022/03/12 05:24:05;;;;;;;7.90;3.70;;;;;;;-3.90;53.50;101859.00;116949;1188;21865;-63
2022/03/12 05:26:34;;;;;;;8.00;4.10;;;;;;;-3.87;53.48;101859.54;116972;1188;22101;-62
2022/03/12 05:29:03;;;;;;;7.10;4.00;;;;;;;-3.80;53.62;101862.96;117026;1188;22952;-62
2022/03/12 05:31:31;;;;;;;8.00;3.40;;;;;;;-3.74;53.70;101862.81;117003;1188;24197;-62
2022/03/12 05:34:00;;;;;;;9.40;4.20;;;;;;;-3.68;53.73;101867.39;116944;1188;23837;-49
2022/03/12 05:36:28;;;;;;;8.00;3.40;;;;;;;-3.61;53.59;101855.98;116933;1188;23556;-50
2022/03/12 05:38:59;;;;;;;9.40;3.80;;;;;;;-3.56;53.57;101860.97;116956;1188;22921;-63
2022/03/12 05:41:34;;;;;;;9.40;4.20;;;;;;;-3.49;53.72;101864.33;116924;1188;21853;-50
2022/03/12 05:44:03;;;;;;;7.20;3.90;;;;;;;-3.43;53.70;101866.66;116966;1189;21850;-50
2022/03/12 05:46:32;;;;;;;9.70;3.60;;;;;;;-3.42;53.63;101869.16;116758;1189;22925;-48
2022/03/12 05:49:01;;;;;;;10.70;4.60;;;;;;;-3.34;53.75;101868.65;116767;1190;23549;-48
2022/03/12 05:51:31;;;;;;;6.60;3.40;;;;;;;-3.23;53.70;101877.46;116726;1189;21856;-48
2022/03/12 05:54:02;;;;;;;8.80;3.80;;;;;;;-3.16;53.73;101880.50;117236;1184;22932;-48
2022/03/12 05:56:31;;;;;;;11.00;4.00;;;;;;;-3.08;53.91;101881.35;117432;1189;22904;-49
2022/03/12 05:58:59;;;;;;;8.00;3.60;;;;;;;-2.85;54.03;101881.89;116801;1189;23586;-62
2022/03/12 06:01:27;;;;;;;9.00;5.40;;;;;;;-2.61;54.32;101876.53;116813;1189;21981;-63
2022/03/12 06:03:59;;;;;;;6.70;3.70;;;;;;;-2.51;54.03;101885.92;116883;1189;24173;-60
2022/03/12 06:06:30;;;;;;;8.20;4.00;;;;;;;-2.48;53.96;101887.30;116915;1189;23008;-49
2022/03/12 06:08:58;;;;;;;;;;;;;;;-2.47;53.94;101894.82;116907;1189;21812;-49
2022/03/12 06:11:27;;;;;;;6.60;3.00;;;;;;;-2.48;53.78;101893.71;116987;1189;22572;-61
2022/03/12 06:14:00;;;;;;;6.10;3.20;;;;;;;-2.48;53.81;101893.38;116830;1189;23455;-61
2022/03/12 06:16:29;;;;;;;6.40;3.30;;;;;;;-2.43;53.92;101894.73;116931;1189;21856;-61
2022/03/12 06:18:58;;;;;;;9.60;4.00;;;;;;;-2.35;54.01;101897.65;116870;1184;23572;-62
2022/03/12 06:21:27;;;;;;;7.00;3.80;;;;;;;-2.30;53.98;101898.84;116778;1189;22117;-62
2022/03/12 06:24:03;;;;;;;8.80;3.40;;;;;;;-2.23;54.10;101902.52;116808;1189;23462;-48
2022/03/12 06:26:36;;;;;;;7.80;3.20;;;;;;;-2.16;53.98;101908.16;116948;1189;23554;-62
2022/03/12 06:29:10;;;;;;;7.40;3.10;;;;;;;-2.07;54.00;101910.63;116914;1189;22936;-64
2022/03/12 06:31:41;;;;;;;9.20;3.20;;;;;;;-2.00;54.09;101909.15;116900;1189;21856;-63
2022/03/12 06:34:11;;;;;;;7.70;3.40;;;;;;;-1.93;54.06;101906.33;116919;1189;22585;-49
2022/03/12 06:36:40;;;;;;;7.40;3.60;;;;;;;-1.86;54.02;101911.95;116935;1188;22650;-48
2022/03/12 06:39:08;;;;;;;7.90;3.40;;;;;;;-1.80;54.00;101911.44;116895;1189;23489;-49
2022/03/12 06:41:38;;;;;;;9.00;3.50;;;;;;;-1.72;54.01;101911.73;116977;1189;23470;-67
2022/03/12 06:44:08;;;;;;;6.10;3.30;;;;;;;-1.64;54.02;101914.64;116794;1189;21868;-66
2022/03/12 06:46:37;;;;;;;6.80;2.80;;;;;;;-1.56;54.31;101916.39;116799;1189;21917;-66
2022/03/12 06:49:05;;;;;;;6.20;3.10;;;;;;;-1.44;54.26;101916.77;116943;1189;21866;-49
2022/03/12 06:51:34;;;;;;;6.80;3.10;;;;;;;-1.35;54.11;101919.90;117120;1189;21871;-67
2022/03/12 06:54:04;;;;;;;7.00;3.30;;;;;;;-1.27;54.21;101914.53;116803;1189;23641;-48
2022/03/12 06:56:34;;;;;;;6.10;3.10;;;;;;;-1.15;54.10;101918.13;116852;1189;22932;-48
2022/03/12 06:59:03;;;;;;;8.20;3.40;;;;;;;-1.06;54.10;101922.64;116942;1189;21858;-51
2022/03/12 07:01:32;;;;;;;6.80;3.90;;;;;;;-0.96;54.17;101921.36;116984;1189;24715;-49
2022/03/12 07:04:01;;;;;;;5.90;3.30;;;;;;;-0.85;54.21;101919.56;116804;1187;21857;-50
2022/03/12 07:06:30;;;;;;;6.00;2.90;;;;;;;-0.75;54.36;101921.20;116958;1185;21851;-49
2022/03/12 07:09:00;;;;;;;4.60;2.40;;;;;;;-0.63;54.52;101926.72;117008;1189;24281;-50
2022/03/12 07:11:31;;;;;;;5.70;3.00;;;;;;;-0.51;54.56;101924.59;116937;1189;21844;-66
2022/03/12 07:14:00;;;;;;;5.40;2.80;;;;;;;-0.39;54.56;101925.14;116926;1189;23544;-50
2022/03/12 07:16:29;;;;;;;5.70;2.80;;;;;;;-0.23;54.32;101924.34;116904;1189;23456;-50
2022/03/12 07:18:58;;;;;;;4.90;2.50;;;;;;;-0.10;54.63;101927.81;116856;1189;21855;-66
2022/03/12 07:21:28;;;;;;;8.70;2.70;;;;;;;0.04;54.58;101924.45;116744;1190;23582;-66
2022/03/12 07:23:57;;;;;;;6.80;3.10;;;;;;;0.14;54.52;101917.04;116865;1189;21846;-50
2022/03/12 07:26:25;;;;;;;5.00;2.40;;;;;;;0.23;54.15;101919.95;116993;1189;23023;-50
2022/03/12 07:28:57;;;;;;;5.30;3.00;;;;;;;0.36;54.55;101917.90;116779;1189;22935;-65
2022/03/12 07:31:26;;;;;;;5.60;2.80;;;;;;;0.51;54.62;101918.67;116933;1189;22408;-65
2022/03/12 07:33:54;;;;;;;8.80;2.90;;;;;;;0.59;54.63;101918.27;116887;1189;23007;-48
2022/03/12 07:36:23;;;;;;;8.60;4.10;;;;;;;0.77;54.67;101917.99;116814;1189;23458;-63
2022/03/12 07:38:51;;;;;;;9.10;3.80;;;;;;;1.13;55.09;101913.57;116935;1181;24159;-63
2022/03/12 07:41:20;;;;;;;7.90;3.90;;;;;;;1.32;54.86;101910.40;116878;1189;24197;-63
2022/03/12 07:43:48;;;;;;;6.10;3.30;;;;;;;1.43;54.58;101910.25;116698;1189;22151;-52
2022/03/12 07:46:19;;;;;;;10.20;4.50;;;;;;;1.60;54.86;101912.13;116836;1189;23457;-51
2022/03/12 07:48:48;;;;;;;6.50;3.60;;;;;;;1.79;54.93;101914.40;116878;1189;23608;-64
2022/03/12 07:51:16;;;;;;;6.20;2.90;;;;;;;1.91;54.78;101910.67;116776;1189;23659;-64
2022/03/12 07:53:45;;;;;;;9.40;4.20;;;;;;;2.01;54.85;101910.28;116787;1189;24167;-52
2022/03/12 07:56:13;;;;;;;9.60;3.30;;;;;;;2.04;54.56;101908.85;116751;1189;23004;-53
2022/03/12 07:58:43;;;;;;;4.90;2.80;;;;;;;2.05;54.56;101909.23;116753;1190;22163;-63
2022/03/12 08:01:12;;;;;;;5.50;3.10;;;;;;;2.08;54.39;101908.88;116918;1189;21857;-53
2022/03/12 08:03:40;;;;;;;5.50;3.30;;;;;;;2.19;54.58;101915.60;116756;1189;23581;-63
2022/03/12 08:06:09;;;;;;;4.40;2.40;;;;;;;2.34;54.73;101914.56;116734;1189;23470;-63
2022/03/12 08:08:38;;;;;;;4.50;2.70;;;;;;;2.49;54.88;101918.37;116762;1189;21874;-53
2022/03/12 08:11:25;;;;;;;4.30;2.40;;;;;;;2.60;54.72;101915.89;116659;1189;23568;-53
2022/03/12 08:14:00;;;;;;;4.70;2.50;;;;;;;2.71;54.75;101912.24;116908;1189;21843;-63
2022/03/12 08:16:29;;;;;;;4.60;2.40;;;;;;;2.82;54.76;101910.30;116906;1189;21858;-53
2022/03/12 08:18:58;;;;;;;3.60;2.10;;;;;;;2.94;54.73;101909.23;116993;1188;21892;-62
2022/03/12 08:21:26;;;;;;;5.20;2.60;;;;;;;3.10;54.86;101907.16;116902;1188;23557;-61
2022/03/12 08:23:56;;;;;;;4.50;1.90;;;;;;;3.31;55.00;101898.52;117768;1188;24232;-53
2022/03/12 08:26:25;;;;;;;4.90;2.40;;;;;;;3.52;55.21;101901.10;118463;1189;21872;-63
2022/03/12 08:28:53;;;;;;;3.20;1.90;;;;;;;3.63;54.96;101898.60;118917;1189;21750;-64
2022/03/12 08:31:22;;;;;;;4.20;2.30;;;;;;;3.74;55.08;101895.89;118839;1189;22490;-64
2022/03/12 08:33:51;;;;;;;3.80;2.00;;;;;;;3.93;55.02;101893.86;117504;1189;21854;-63
2022/03/12 08:36:20;;;;;;;4.90;2.10;;;;;;;4.09;55.07;101891.70;116875;1190;23561;-64
2022/03/12 08:38:48;;;;;;;4.20;2.00;;;;;;;4.22;54.84;101890.80;116933;1185;23456;-64
2022/03/12 08:41:17;;;;;;;3.40;1.80;;;;;;;4.34;54.82;101885.89;116981;1188;23346;-53
2022/03/12 08:43:47;;;;;;;2.60;1.20;;;;;;;4.53;55.01;101885.16;116902;1189;22975;-64
2022/03/12 08:46:15;;;;;;;3.40;1.80;;;;;;;4.68;55.01;101883.80;116946;1189;22128;-65
2022/03/12 08:48:50;;;;;;;4.90;1.30;;;;;;;4.82;54.99;101884.30;116764;1189;22912;-65
2022/03/12 08:51:19;;;;;;;3.60;1.50;;;;;;;4.96;55.22;101884.63;116813;1187;22933;-52
2022/03/12 08:53:48;;;;;;;3.80;1.80;;;;;;;5.11;55.20;101884.95;117005;1188;24174;-52
2022/03/12 08:56:17;;;;;;;4.70;2.20;;;;;;;5.27;55.20;101885.50;116960;1188;24165;-65
2022/03/12 08:58:46;;;;;;;5.00;2.10;;;;;;;5.39;55.05;101881.52;116875;1189;22622;-73
2022/03/12 09:01:16;;;;;;;5.80;1.80;;;;;;;5.44;54.67;101877.52;117962;1189;22887;-71
2022/03/12 09:03:45;;;;;;;5.30;1.90;;;;;;;5.61;54.92;101873.73;116677;1189;21845;-50
2022/03/12 09:06:15;;;;;;;3.20;1.50;;;;;;;5.79;55.06;101872.02;116868;1189;21863;-70
2022/03/12 09:08:45;;;;;;;4.90;2.10;;;;;;;5.96;55.21;101869.08;116973;1189;21941;-68
2022/03/12 09:11:17;;;;;;;4.90;1.80;;;;;;;6.15;55.54;101862.34;116704;1189;21907;-65
2022/03/12 09:13:46;;;;;;;6.10;1.40;;;;;;;6.33;55.47;101857.63;116767;1189;22922;-49
2022/03/12 09:16:15;;;;;;;4.60;1.40;;;;;;;6.40;54.94;101854.70;116780;1191;21855;-66
2022/03/12 09:19:04;;;;;;;3.40;1.10;;;;;;;6.49;54.87;101851.81;116782;1189;21846;-65
2022/03/12 09:21:35;;;;;;;3.80;1.40;;;;;;;6.54;54.63;101857.17;116940;1188;21964;-65
2022/03/12 09:24:04;;;;;;;5.50;2.00;;;;;;;6.56;54.61;101850.42;116839;1188;22049;-51
2022/03/12 09:26:32;;;;;;;4.50;1.80;;;;;;;6.66;54.86;101847.38;116850;1185;21885;-65
2022/03/12 09:29:03;;;;;;;3.00;1.60;;;;;;;6.74;55.09;101850.21;116812;1189;21868;-65
2022/03/12 09:31:35;;;;;;;4.70;1.90;;;;;;;6.80;54.90;101841.32;116978;1188;24167;-64
2022/03/12 09:34:06;;;;;;;3.10;1.50;;;;;;;6.90;54.69;101837.56;116901;1187;21886;-65
2022/03/12 09:36:36;;;;;;;4.30;1.50;;;;;;;7.04;55.02;101837.23;116823;1189;21860;-65
2022/03/12 09:39:06;;;;;;;4.40;1.60;;;;;;;7.19;54.97;101832.88;116772;1189;21978;-52
2022/03/12 09:41:38;;;;;;;2.80;1.50;;;;;;;7.33;55.16;101828.33;116889;1188;23851;-52
2022/03/12 09:44:08;;;;;;;4.40;1.50;;;;;;;7.42;54.64;101831.17;116678;1189;23453;-52
2022/03/12 09:46:37;;;;;;;4.00;1.60;;;;;;;7.51;54.89;101827.52;116965;1188;22926;-52
2022/03/12 09:49:05;;;;;;;3.50;1.50;;;;;;;7.64;54.93;101829.58;116733;1189;21840;-64
2022/03/12 09:51:34;;;;;;;4.50;1.60;;;;;;;7.73;54.70;101820.53;116743;1189;22078;-64
2022/03/12 09:54:03;;;;;;;6.70;2.00;;;;;;;7.78;54.56;101823.61;116840;1189;24278;-53
2022/03/12 09:56:31;;;;;;;5.30;1.70;;;;;;;7.79;54.51;101821.53;116790;1189;21901;-52
2022/03/12 09:59:00;;;;;;;2.50;1.50;;;;;;;7.92;54.86;101816.74;116819;1187;24174;-64
2022/03/12 10:01:29;;;;;;;2.70;1.40;;;;;;;8.14;55.01;101810.56;116800;1189;22968;-63
2022/03/12 10:03:58;;;;;;;5.00;1.50;;;;;;;8.36;55.02;101805.23;116784;1189;21847;-64
2022/03/12 10:06:29;;;;;;;4.20;1.60;;;;;;;8.53;54.80;101801.21;116925;1189;21865;-53
2022/03/12 10:08:57;;;;;;;3.80;1.70;;;;;;;8.53;54.30;101801.58;116803;1189;22967;-64
2022/03/12 10:11:45;;;;;;;2.90;1.20;;;;;;;8.52;54.25;101794.20;116688;1189;23563;-53
2022/03/12 10:14:15;;;;;;;2.80;1.20;;;;;;;8.63;54.68;101787.58;116621;1189;21945;-53
2022/03/12 10:16:43;;;;;;;5.90;2.30;;;;;;;8.77;54.53;101790.81;116721;1189;22856;-53
2022/03/12 10:19:12;;;;;;;7.90;2.10;;;;;;;8.85;54.55;101785.87;116708;1190;21866;-53
2022/03/12 10:21:45;;;;;;;2.90;1.30;;;;;;;8.87;54.28;101782.74;116823;1189;22062;-64
2022/03/12 10:24:14;;;;;;;3.50;1.60;;;;;;;8.95;54.26;101775.01;116786;1189;21866;-53
2022/03/12 10:26:43;;;;;;;3.70;1.30;;;;;;;9.09;54.52;101768.77;116874;1189;24487;-53
2022/03/12 10:29:14;;;;;;;5.20;1.40;;;;;;;9.30;54.69;101765.94;116636;1189;21861;-64
2022/03/12 10:31:42;;;;;;;5.80;1.70;;;;;;;9.60;54.81;101762.32;116649;1189;23012;-65
2022/03/12 10:34:18;;;;;;;4.30;1.80;;;;;;;9.76;54.54;101759.21;117003;1189;21855;-52
2022/03/12 10:36:53;;;;;;;3.40;1.90;;;;;;;9.80;54.33;101758.05;116722;1189;23584;-53
2022/03/12 10:39:34;;;;;;;5.00;2.00;;;;;;;9.88;54.35;101757.09;116815;1189;22945;-64
2022/03/12 10:42:07;;;;;;;2.60;1.30;;;;;;;9.89;54.04;101748.52;116972;1189;22454;-64
2022/03/12 10:44:37;;;;;;;3.00;1.70;;;;;;;9.89;53.96;101746.95;117023;1189;21878;-65
2022/03/12 10:47:19;;;;;;;2.20;1.10;;;;;;;9.86;53.88;101742.34;118822;1189;21791;-54
2022/03/12 10:49:59;;;;;;;2.60;1.30;;;;;;;9.91;54.01;101733.98;118027;1189;23301;-52
2022/03/12 10:52:37;;;;;;;2.90;1.60;;;;;;;10.09;54.33;101733.15;116685;1189;22627;-65
2022/03/12 10:55:16;;;;;;;3.00;1.30;;;;;;;10.25;54.11;101729.81;116830;1189;23464;-63
2022/03/12 10:58:03;;;;;;;2.80;1.40;;;;;;;10.35;54.03;101723.42;117240;1189;22416;-63
2022/03/12 11:00:42;;;;;;;4.30;1.30;;;;;;;10.36;53.79;101717.66;116920;1188;22620;-51
2022/03/12 11:03:20;;;;;;;4.10;1.60;;;;;;;10.32;53.37;101707.08;116787;1188;24228;-51
2022/03/12 11:05:50;;;;;;;2.10;1.00;;;;;;;10.19;53.20;101704.31;116655;1189;21855;-51
2022/03/12 11:08:21;;;;;;;3.00;1.30;;;;;;;10.24;53.69;101706.11;116766;1189;22796;-52
2022/03/12 11:11:00;;;;;;;4.50;2.90;;;;;;;10.29;53.29;101704.94;116739;1188;23735;-62
2022/03/12 11:13:38;;;;;;;6.00;1.90;;;;;;;10.22;53.25;101703.81;117885;1189;21859;-64
2022/03/12 11:16:24;;;;;;;6.80;3.20;;;;;;;10.22;53.13;101699.43;116822;1188;21885;-53
2022/03/12 11:19:13;;;;;;;3.20;1.40;;;;;;;10.34;53.58;101687.27;116826;1188;21870;-63
2022/03/12 11:21:52;;;;;;;;;;;;;;;10.60;53.79;101678.40;116833;1188;22316;-64
2022/03/12 11:24:23;;;;;;;3.70;1.40;;;;;;;10.88;53.72;101678.62;116795;1184;23655;-51
2022/03/12 11:26:58;;;;;;;4.40;1.40;;;;;;;11.04;53.49;101676.45;116807;1189;23456;-63
2022/03/12 11:29:28;;;;;;;1.80;0.90;;;;;;;11.16;53.23;101675.13;116854;1187;21870;-52
2022/03/12 11:32:09;;;;;;;3.30;1.10;;;;;;;11.01;52.35;101671.87;116624;1190;23422;-63
2022/03/12 11:34:39;;;;;;;4.80;1.30;;;;;;;10.81;52.49;101676.11;116716;1189;22530;-65
2022/03/12 11:37:18;;;;;;;2.50;1.10;;;;;;;10.87;53.03;101668.77;116679;1189;22738;-66